createdAt,value
2018-11-29T00:00:47.674Z,20.10
2018-11-29T00:03:15.852Z,21.10
2018-11-29T00:05:44.032Z,21.23
2018-11-29T00:08:12.205Z,19.93
2018-11-29T00:10:40.482Z,20.13
2018-11-29T00:13:08.688Z,19.63
2018-11-29T00:15:36.864Z,19.37
2018-11-29T00:18:05.041Z,19.47
2018-11-29T00:20:33.669Z,19.77
2018-11-29T00:23:01.849Z,19.60
2018-11-29T00:25:30.033Z,20.00
2018-11-29T00:27:58.250Z,19.37
2018-11-29T00:30:26.435Z,20.40
2018-11-29T00:32:55.358Z,20.30
2018-11-29T00:35:23.557Z,21.47
2018-11-29T00:37:51.786Z,21.23
2018-11-29T00:40:20.645Z,21.67
2018-11-29T00:42:48.904Z,21.73
2018-11-29T00:45:18.034Z,20.17
2018-11-29T00:47:46.769Z,21.63
2018-11-29T00:50:15.725Z,21.10
2018-11-29T00:52:44.720Z,21.83
2018-11-29T00:55:15.165Z,19.73
2018-11-29T00:57:43.345Z,19.73
2018-11-29T01:00:14.645Z,19.27
2018-11-29T01:02:42.882Z,19.50
2018-11-29T01:05:11.174Z,19.47
2018-11-29T01:07:39.595Z,18.70
2018-11-29T01:10:11.793Z,18.80
2018-11-29T01:12:40.011Z,18.40
2018-11-29T01:15:10.742Z,18.70
2018-11-29T01:17:38.929Z,19.30
2018-11-29T01:20:09.554Z,18.73
2018-11-29T01:22:37.810Z,19.97
2018-11-29T01:25:07.412Z,19.87
2018-11-29T01:27:35.578Z,19.70
2018-11-29T01:30:04.084Z,19.50
2018-11-29T01:32:32.253Z,18.93
2018-11-29T01:35:00.438Z,20.50
2018-11-29T01:37:28.617Z,20.83
2018-11-29T01:39:56.873Z,20.40
2018-11-29T01:42:25.150Z,20.63
2018-11-29T01:44:53.314Z,20.10
2018-11-29T01:47:21.515Z,20.23
2018-11-29T01:49:49.700Z,19.60
2018-11-29T01:52:17.896Z,19.83
2018-11-29T01:54:46.129Z,18.97
2018-11-29T01:57:14.317Z,19.67
2018-11-29T01:59:42.505Z,20.37
2018-11-29T02:02:11.442Z,21.00
2018-11-29T02:04:39.642Z,20.30
2018-11-29T02:07:07.941Z,21.23
2018-11-29T02:09:36.128Z,20.87
2018-11-29T02:12:04.331Z,20.90
2018-11-29T02:14:32.528Z,21.70
2018-11-29T02:17:00.715Z,20.80
2018-11-29T02:19:28.926Z,20.23
2018-11-29T02:21:57.109Z,19.87
2018-11-29T02:24:25.340Z,20.47
2018-11-29T02:26:53.538Z,23.40
2018-11-29T02:29:21.718Z,20.80
2018-11-29T02:31:49.973Z,23.33
2018-11-29T02:34:18.142Z,22.60
2018-11-29T02:36:46.327Z,24.07
2018-11-29T02:39:14.534Z,22.60
2018-11-29T02:41:42.745Z,22.37
2018-11-29T02:44:10.989Z,22.90
2018-11-29T02:46:39.178Z,23.20
2018-11-29T02:49:07.370Z,23.17
2018-11-29T02:51:35.592Z,22.83
2018-11-29T02:54:03.817Z,22.97
2018-11-29T02:56:32.030Z,23.40
2018-11-29T02:59:00.274Z,23.03
2018-11-29T03:01:28.429Z,23.57
2018-11-29T03:03:56.638Z,22.63
2018-11-29T03:06:24.842Z,21.50
2018-11-29T03:08:53.001Z,23.60
2018-11-29T03:11:21.184Z,22.37
2018-11-29T03:13:49.377Z,21.37
2018-11-29T03:16:17.565Z,22.20
2018-11-29T03:18:45.733Z,23.13
2018-11-29T03:21:13.922Z,21.23
2018-11-29T03:23:42.093Z,23.17
2018-11-29T03:26:10.316Z,21.20
2018-11-29T03:28:38.511Z,22.70
2018-11-29T03:31:06.722Z,23.33
2018-11-29T03:33:34.931Z,21.70
2018-11-29T03:36:03.113Z,21.43
2018-11-29T03:38:31.289Z,23.53
2018-11-29T03:40:59.465Z,21.60
2018-11-29T03:43:27.651Z,23.97
2018-11-29T03:45:55.887Z,22.60
2018-11-29T03:48:24.085Z,20.43
2018-11-29T03:50:52.287Z,24.03
2018-11-29T03:53:20.489Z,21.93
2018-11-29T03:55:48.719Z,23.07
2018-11-29T03:58:16.953Z,22.87
2018-11-29T04:00:45.142Z,22.57
2018-11-29T04:03:13.362Z,22.60
2018-11-29T04:05:41.574Z,22.43
2018-11-29T04:08:09.783Z,21.67
2018-11-29T04:10:37.998Z,22.40
2018-11-29T04:13:06.559Z,22.97
2018-11-29T04:15:34.801Z,22.30
2018-11-29T04:18:02.997Z,22.57
2018-11-29T04:20:31.173Z,23.80
2018-11-29T04:22:59.442Z,24.63
2018-11-29T04:25:27.712Z,24.90
2018-11-29T04:27:55.861Z,23.70
2018-11-29T04:30:24.061Z,22.87
2018-11-29T04:32:53.319Z,23.37
2018-11-29T04:35:20.464Z,23.03
2018-11-29T04:37:48.947Z,24.20
2018-11-29T04:40:17.470Z,21.30
2018-11-29T04:42:45.737Z,23.80
2018-11-29T04:45:15.955Z,22.10
2018-11-29T04:47:44.148Z,23.57
2018-11-29T04:50:12.334Z,22.90
2018-11-29T04:52:40.642Z,22.80
2018-11-29T04:55:09.580Z,23.23
2018-11-29T04:57:38.066Z,23.50
2018-11-29T05:00:12.448Z,22.37
2018-11-29T05:02:40.641Z,20.33
2018-11-29T05:05:09.154Z,23.10
2018-11-29T05:07:37.376Z,21.77
2018-11-29T05:10:06.845Z,22.43
2018-11-29T05:12:35.061Z,22.70
2018-11-29T05:15:03.243Z,21.93
2018-11-29T05:17:31.429Z,22.90
2018-11-29T05:19:59.591Z,24.80
2018-11-29T05:22:27.845Z,23.50
2018-11-29T05:24:56.009Z,23.23
2018-11-29T05:27:24.210Z,21.90
2018-11-29T05:29:52.557Z,24.20
2018-11-29T05:32:20.762Z,22.70
2018-11-29T05:34:49.081Z,22.60
2018-11-29T05:37:17.281Z,22.73
2018-11-29T05:39:45.470Z,24.30
2018-11-29T05:42:13.685Z,24.93
2018-11-29T05:44:41.876Z,21.73
2018-11-29T05:47:10.076Z,23.57
2018-11-29T05:49:38.296Z,22.67
2018-11-29T05:52:06.482Z,23.70
2018-11-29T05:54:34.668Z,23.33
2018-11-29T05:57:02.909Z,23.17
2018-11-29T05:59:31.134Z,21.97
2018-11-29T06:01:59.320Z,22.60
2018-11-29T06:04:27.512Z,22.13
2018-11-29T06:06:55.704Z,23.60
2018-11-29T06:09:23.896Z,21.77
2018-11-29T06:11:52.053Z,24.20
2018-11-29T06:14:20.251Z,22.70
2018-11-29T06:16:48.429Z,22.40
2018-11-29T06:19:16.677Z,21.33
2018-11-29T06:21:44.873Z,21.73
2018-11-29T06:24:13.651Z,22.60
2018-11-29T06:26:41.380Z,25.63
2018-11-29T06:29:09.569Z,21.30
2018-11-29T06:31:37.801Z,22.13
2018-11-29T06:34:06.896Z,23.30
2018-11-29T06:36:35.074Z,22.60
2018-11-29T06:39:03.829Z,22.80
2018-11-29T06:41:32.070Z,22.00
2018-11-29T06:44:00.238Z,21.67
2018-11-29T06:46:28.425Z,21.43
2018-11-29T06:48:56.613Z,20.80
2018-11-29T06:51:24.799Z,20.60
2018-11-29T06:53:58.145Z,22.00
2018-11-29T06:56:26.377Z,22.67
2018-11-29T06:58:55.006Z,20.93
2018-11-29T07:01:23.313Z,23.30
2018-11-29T07:03:51.596Z,22.07
2018-11-29T07:06:19.782Z,21.10
2018-11-29T07:08:47.961Z,20.73
2018-11-29T07:11:16.276Z,21.17
2018-11-29T07:13:44.485Z,21.87
2018-11-29T07:16:12.668Z,22.90
2018-11-29T07:18:40.888Z,23.53
2018-11-29T07:21:20.433Z,21.80
2018-11-29T07:23:48.637Z,26.53
2018-11-29T07:26:16.869Z,24.17
2018-11-29T07:28:45.201Z,23.17
2018-11-29T07:31:13.470Z,23.00
2018-11-29T07:33:41.694Z,23.67
2018-11-29T07:36:09.881Z,24.27
2018-11-29T07:38:38.086Z,24.40
2018-11-29T07:41:06.582Z,25.37
2018-11-29T07:43:34.786Z,25.77
2018-11-29T07:46:02.995Z,24.83
2018-11-29T07:48:31.233Z,25.63
2018-11-29T07:50:59.442Z,25.53
2018-11-29T07:53:27.694Z,26.00
2018-11-29T07:55:55.906Z,24.20
2018-11-29T07:58:24.094Z,24.80
2018-11-29T08:00:52.294Z,25.20
2018-11-29T08:03:20.528Z,24.20
2018-11-29T08:05:48.761Z,26.13
2018-11-29T08:08:16.942Z,24.10
2018-11-29T08:10:45.123Z,22.77
2018-11-29T08:13:13.316Z,24.23
2018-11-29T08:15:41.513Z,25.83
2018-11-29T08:18:09.720Z,23.80
2018-11-29T08:20:37.896Z,23.20
2018-11-29T08:23:06.210Z,24.63
2018-11-29T08:25:34.424Z,24.80
2018-11-29T08:28:02.758Z,21.37
2018-11-29T08:30:30.971Z,25.60
2018-11-29T08:32:59.161Z,26.30
2018-11-29T08:35:27.357Z,24.30
2018-11-29T08:37:55.565Z,25.67
2018-11-29T08:40:23.758Z,26.33
2018-11-29T08:42:51.969Z,23.70
2018-11-29T08:45:20.188Z,22.83
2018-11-29T08:47:48.413Z,23.03
2018-11-29T08:50:16.618Z,24.97
2018-11-29T08:52:45.667Z,28.37
2018-11-29T08:55:14.960Z,24.80
2018-11-29T08:57:43.178Z,27.73
2018-11-29T09:00:14.692Z,21.90
2018-11-29T09:02:42.922Z,22.53
2018-11-29T09:05:11.899Z,24.87
2018-11-29T09:07:40.084Z,25.80
2018-11-29T09:10:10.645Z,23.23
2018-11-29T09:12:38.834Z,22.53
2018-11-29T09:15:09.033Z,23.17
2018-11-29T09:17:37.317Z,21.90
2018-11-29T09:20:10.150Z,23.50
2018-11-29T09:22:38.383Z,25.27
2018-11-29T09:25:08.717Z,23.10
2018-11-29T09:27:37.102Z,22.03
2018-11-29T09:30:09.973Z,22.40
2018-11-29T09:32:38.158Z,25.27
2018-11-29T09:35:07.065Z,22.00
2018-11-29T09:37:35.528Z,26.73
2018-11-29T09:40:04.027Z,21.80
2018-11-29T09:42:32.249Z,22.77
2018-11-29T09:45:00.462Z,23.20
2018-11-29T09:47:28.668Z,23.50
2018-11-29T09:49:56.893Z,25.07
2018-11-29T09:52:25.101Z,25.50
2018-11-29T09:54:53.360Z,22.80
2018-11-29T09:57:21.542Z,25.83
2018-11-29T09:59:49.706Z,24.60
2018-11-29T10:02:17.896Z,25.17
2018-11-29T10:04:46.064Z,25.67
2018-11-29T10:07:14.221Z,24.73
2018-11-29T10:09:42.401Z,32.23
2018-11-29T10:12:10.590Z,25.27
2018-11-29T10:14:38.761Z,23.33
2018-11-29T10:17:06.932Z,26.10
2018-11-29T10:19:35.138Z,24.00
2018-11-29T10:22:03.257Z,26.40
2018-11-29T10:24:31.539Z,26.83
2018-11-29T10:26:59.696Z,27.23
2018-11-29T10:29:27.872Z,24.50
2018-11-29T10:31:56.052Z,26.20
2018-11-29T10:34:24.214Z,22.53
2018-11-29T10:36:52.406Z,24.40
2018-11-29T10:39:20.582Z,27.43
2018-11-29T10:41:48.746Z,24.10
2018-11-29T10:44:16.929Z,27.13
2018-11-29T10:46:45.089Z,25.43
2018-11-29T10:49:13.266Z,25.13
2018-11-29T10:51:41.437Z,25.33
2018-11-29T10:54:09.618Z,25.10
2018-11-29T10:56:37.781Z,26.07
2018-11-29T10:59:06.404Z,23.77
2018-11-29T11:01:39.894Z,27.43
2018-11-29T11:04:08.081Z,25.60
2018-11-29T11:06:36.254Z,23.40
2018-11-29T11:09:06.861Z,23.53
2018-11-29T11:11:35.025Z,27.50
2018-11-29T11:14:03.188Z,22.40
2018-11-29T11:16:31.342Z,24.70
2018-11-29T11:18:59.501Z,26.37
2018-11-29T11:21:27.673Z,23.30
2018-11-29T11:23:59.306Z,22.47
2018-11-29T11:26:24.051Z,23.30
2018-11-29T11:28:52.231Z,27.17
2018-11-29T11:31:20.413Z,26.47
2018-11-29T11:33:48.585Z,28.27
2018-11-29T11:36:16.766Z,29.30
2018-11-29T11:38:44.930Z,28.17
2018-11-29T11:41:13.098Z,29.53
2018-11-29T11:43:41.261Z,26.10
2018-11-29T11:46:09.441Z,28.40
2018-11-29T11:48:37.673Z,27.23
2018-11-29T11:51:06.341Z,28.40
2018-11-29T11:53:34.499Z,22.83
2018-11-29T11:56:02.668Z,26.17
2018-11-29T11:58:30.836Z,26.90
2018-11-29T12:00:59.014Z,27.80
2018-11-29T12:03:27.185Z,26.67
2018-11-29T12:05:55.367Z,34.10
2018-11-29T12:08:23.539Z,30.90
2018-11-29T12:10:51.718Z,27.60
2018-11-29T12:13:23.204Z,29.40
2018-11-29T12:15:51.383Z,32.93
2018-11-29T12:18:19.552Z,31.73
2018-11-29T12:20:47.728Z,29.63
2018-11-29T12:23:15.892Z,29.23
2018-11-29T12:25:44.070Z,34.40
2018-11-29T12:28:12.247Z,36.40
2018-11-29T12:30:43.141Z,34.80
2018-11-29T12:33:11.309Z,31.63
2018-11-29T12:35:39.488Z,33.67
2018-11-29T12:38:07.669Z,40.77
2018-11-29T12:40:35.856Z,34.77
2018-11-29T12:43:04.035Z,32.07
2018-11-29T12:45:32.347Z,30.30
2018-11-29T12:48:00.509Z,30.63
2018-11-29T12:50:28.677Z,30.33
2018-11-29T12:52:56.874Z,27.87
2018-11-29T12:55:26.061Z,34.13
2018-11-29T13:00:25.302Z,32.43
2018-11-29T13:02:55.453Z,32.53
2018-11-29T13:05:23.685Z,31.60
2018-11-29T13:07:52.021Z,30.73
2018-11-29T13:10:21.305Z,32.93
2018-11-29T13:12:49.585Z,28.20
2018-11-29T13:15:20.193Z,33.00
2018-11-29T13:17:48.304Z,31.60
2018-11-29T13:20:17.194Z,32.77
2018-11-29T13:22:45.358Z,31.47
2018-11-29T13:25:16.480Z,30.00
2018-11-29T13:27:44.653Z,28.77
2018-11-29T13:30:20.572Z,28.63
2018-11-29T13:32:51.897Z,29.63
2018-11-29T13:35:21.375Z,28.30
2018-11-29T13:37:54.690Z,30.23
2018-11-29T13:40:22.890Z,29.00
2018-11-29T13:42:51.058Z,29.50
2018-11-29T13:45:19.228Z,28.60
2018-11-29T13:47:47.392Z,29.33
2018-11-29T13:50:16.200Z,27.03
2018-11-29T13:52:44.446Z,29.27
2018-11-29T13:55:13.453Z,30.23
2018-11-29T13:57:42.625Z,27.60
2018-11-29T14:00:15.859Z,27.53
2018-11-29T14:02:47.032Z,28.33
2018-11-29T14:05:12.940Z,27.50
2018-11-29T14:07:41.080Z,28.10
2018-11-29T14:10:18.039Z,28.93
2018-11-29T14:12:47.229Z,27.63
2018-11-29T14:15:16.575Z,27.23
2018-11-29T14:17:44.781Z,24.57
2018-11-29T14:20:13.700Z,26.37
2018-11-29T14:22:41.870Z,27.47
2018-11-29T14:25:11.094Z,25.13
2018-11-29T14:27:39.496Z,21.50
2018-11-29T14:30:10.986Z,22.73
2018-11-29T14:32:39.161Z,23.53
2018-11-29T14:35:07.786Z,21.63
2018-11-29T14:37:35.994Z,23.33
2018-11-29T14:40:05.562Z,24.10
2018-11-29T14:42:33.724Z,26.13
2018-11-29T14:45:01.943Z,21.30
2018-11-29T14:47:30.090Z,20.70
2018-11-29T14:49:59.118Z,21.03
2018-11-29T14:52:27.323Z,22.60
2018-11-29T14:54:55.529Z,21.03
2018-11-29T14:57:23.698Z,25.37
2018-11-29T14:59:51.857Z,22.60
2018-11-29T15:02:20.037Z,26.40
2018-11-29T15:04:48.201Z,22.50
2018-11-29T15:07:16.426Z,23.77
2018-11-29T15:09:44.890Z,21.60
2018-11-29T15:12:13.067Z,23.07
2018-11-29T15:14:41.231Z,26.73
2018-11-29T15:17:09.428Z,23.40
2018-11-29T15:19:37.601Z,21.67
2018-11-29T15:22:06.025Z,24.80
2018-11-29T15:24:34.197Z,21.77
2018-11-29T15:27:02.405Z,20.30
2018-11-29T15:29:30.575Z,22.23
2018-11-29T15:31:58.777Z,22.00
2018-11-29T15:34:26.922Z,23.70
2018-11-29T15:36:55.090Z,20.83
2018-11-29T15:39:23.269Z,29.57
2018-11-29T15:41:51.505Z,22.80
2018-11-29T15:44:19.670Z,19.23
2018-11-29T15:46:47.844Z,18.53
2018-11-29T15:49:16.010Z,17.37
2018-11-29T15:51:44.169Z,19.93
2018-11-29T15:54:12.355Z,18.40
2018-11-29T15:56:40.689Z,18.03
2018-11-29T15:59:13.478Z,18.53
2018-11-29T16:01:41.665Z,19.07
2018-11-29T16:04:09.834Z,19.17
2018-11-29T16:06:38.000Z,19.23
2018-11-29T16:09:08.013Z,18.63
2018-11-29T16:11:36.410Z,17.53
2018-11-29T16:14:05.374Z,18.67
2018-11-29T16:16:33.605Z,17.37
2018-11-29T16:19:03.956Z,20.47
2018-11-29T16:21:30.947Z,23.70
2018-11-29T16:23:59.489Z,19.10
2018-11-29T16:26:28.150Z,20.33
2018-11-29T16:28:56.748Z,18.47
2018-11-29T16:31:25.844Z,20.07
2018-11-29T16:33:54.119Z,19.37
2018-11-29T16:36:22.557Z,20.47
2018-11-29T16:38:51.491Z,18.60
2018-11-29T16:41:19.992Z,19.00
2018-11-29T16:43:48.686Z,18.77
2018-11-29T16:46:17.694Z,18.10
2018-11-29T16:48:46.263Z,22.30
2018-11-29T16:51:15.107Z,19.30
2018-11-29T16:53:43.923Z,18.00
2018-11-29T16:56:14.256Z,17.97
2018-11-29T16:58:43.810Z,18.60
2018-11-29T17:01:12.450Z,21.53
2018-11-29T17:03:41.593Z,18.47
2018-11-29T17:06:16.901Z,20.67
2018-11-29T17:08:46.257Z,20.80
2018-11-29T17:11:14.708Z,18.77
2018-11-29T17:13:43.331Z,18.27
2018-11-29T17:16:12.046Z,19.67
2018-11-29T17:18:40.659Z,18.60
2018-11-29T17:21:09.307Z,21.77
2018-11-29T17:23:37.934Z,18.17
2018-11-29T17:26:06.441Z,19.97
2018-11-29T17:28:35.211Z,20.67
2018-11-29T17:31:03.685Z,19.67
2018-11-29T17:33:31.926Z,21.07
2018-11-29T17:36:00.182Z,19.23
2018-11-29T17:38:28.489Z,20.90
2018-11-29T17:40:56.854Z,19.40
2018-11-29T17:43:25.158Z,19.67
2018-11-29T17:45:53.439Z,21.97
2018-11-29T17:48:21.982Z,20.33
2018-11-29T17:50:50.390Z,19.60
2018-11-29T17:53:19.848Z,18.43
2018-11-29T17:55:48.905Z,21.80
2018-11-29T17:58:17.331Z,18.50
2018-11-29T18:00:48.889Z,18.90
2018-11-29T18:03:19.693Z,18.23
2018-11-29T18:05:47.897Z,24.03
2018-11-29T18:08:16.137Z,19.33
2018-11-29T18:10:44.709Z,23.50
2018-11-29T18:13:23.621Z,20.10
2018-11-29T18:15:51.922Z,19.70
2018-11-29T18:18:20.089Z,25.43
2018-11-29T18:20:48.290Z,20.83
2018-11-29T18:23:16.526Z,22.23
2018-11-29T18:25:44.708Z,25.87
2018-11-29T18:28:13.762Z,21.20
2018-11-29T18:30:42.666Z,22.47
2018-11-29T18:33:11.214Z,20.17
2018-11-29T18:35:39.830Z,21.37
2018-11-29T18:38:08.610Z,22.87
2018-11-29T18:40:37.324Z,19.77
2018-11-29T18:43:07.899Z,21.17
2018-11-29T18:45:37.440Z,24.90
2018-11-29T18:48:06.843Z,19.97
2018-11-29T18:50:35.197Z,23.30
2018-11-29T18:53:03.933Z,19.83
2018-11-29T18:55:32.806Z,19.90
2018-11-29T18:58:01.937Z,21.43
2018-11-29T19:00:35.520Z,19.67
2018-11-29T19:03:04.941Z,21.87
2018-11-29T19:05:33.439Z,20.40
2018-11-29T19:08:01.840Z,17.87
2018-11-29T19:10:30.395Z,17.33
2018-11-29T19:13:16.171Z,17.93
2018-11-29T19:15:44.799Z,17.10
2018-11-29T19:18:13.148Z,17.20
2018-11-29T19:20:41.310Z,17.90
2018-11-29T19:23:09.491Z,19.30
2018-11-29T19:25:37.799Z,17.20
2018-11-29T19:28:07.570Z,19.43
2018-11-29T19:30:37.424Z,17.73
2018-11-29T19:33:17.128Z,18.30
2018-11-29T19:35:41.691Z,17.30
2018-11-29T19:38:10.125Z,17.50
2018-11-29T19:40:38.917Z,17.30
2018-11-29T19:43:08.547Z,20.03
2018-11-29T19:45:36.890Z,17.37
2018-11-29T19:48:06.587Z,17.70
2018-11-29T19:50:35.273Z,17.73
2018-11-29T19:53:04.634Z,18.13
2018-11-29T19:55:34.115Z,18.37
2018-11-29T19:58:02.546Z,18.00
2018-11-29T20:00:30.774Z,18.63
2018-11-29T20:02:59.116Z,17.33
2018-11-29T20:05:27.306Z,17.10
2018-11-29T20:07:55.511Z,17.87
2018-11-29T20:10:23.781Z,24.77
2018-11-29T20:12:59.272Z,18.97
2018-11-29T20:15:27.634Z,19.90
2018-11-29T20:17:55.781Z,18.17
2018-11-29T20:20:23.996Z,16.83
2018-11-29T20:22:52.200Z,17.03
2018-11-29T20:25:22.825Z,16.83
2018-11-29T20:27:51.050Z,15.50
2018-11-29T20:30:20.385Z,16.50
2018-11-29T20:32:50.779Z,17.57
2018-11-29T20:35:19.561Z,15.13
2018-11-29T20:37:48.890Z,17.20
2018-11-29T20:40:24.818Z,16.87
2018-11-29T20:42:54.807Z,18.10
2018-11-29T20:45:31.408Z,17.20
2018-11-29T20:47:59.927Z,16.23
2018-11-29T20:50:29.697Z,16.07
2018-11-29T20:53:00.072Z,16.00
2018-11-29T20:55:29.563Z,16.60
2018-11-29T20:57:57.875Z,18.23
2018-11-29T21:00:26.217Z,17.13
2018-11-29T21:02:54.439Z,16.07
2018-11-29T21:05:23.670Z,16.70
2018-11-29T21:07:57.409Z,16.07
2018-11-29T21:10:25.977Z,16.50
2018-11-29T21:12:54.757Z,17.83
2018-11-29T21:15:23.116Z,17.90
2018-11-29T21:17:51.459Z,16.23
2018-11-29T21:20:20.652Z,17.40
2018-11-29T21:22:50.937Z,16.37
2018-11-29T21:25:21.545Z,18.83
2018-11-29T21:27:49.819Z,17.50
2018-11-29T21:30:18.151Z,17.30
2018-11-29T21:32:46.850Z,17.43
2018-11-29T21:35:17.410Z,18.57
2018-11-29T21:37:45.617Z,16.40
2018-11-29T21:40:16.377Z,17.13
2018-11-29T21:42:44.632Z,17.23
2018-11-29T21:45:12.822Z,17.07
2018-11-29T21:47:41.017Z,16.80
2018-11-29T21:50:09.358Z,17.30
2018-11-29T21:52:37.535Z,16.70
2018-11-29T21:55:06.450Z,16.50
2018-11-29T21:57:34.612Z,18.30
2018-11-29T22:00:03.129Z,16.20
2018-11-29T22:02:31.305Z,17.10
2018-11-29T22:04:59.479Z,16.37
2018-11-29T22:07:27.673Z,16.57
2018-11-29T22:09:55.853Z,16.50
2018-11-29T22:12:24.036Z,16.10
2018-11-29T22:14:52.241Z,20.93
2018-11-29T22:17:20.416Z,15.60
2018-11-29T22:19:48.584Z,15.93
2018-11-29T22:22:16.765Z,17.90
2018-11-29T22:24:45.025Z,16.30
2018-11-29T22:27:13.221Z,15.40
2018-11-29T22:29:41.421Z,14.50
2018-11-29T22:32:09.622Z,17.67
2018-11-29T22:34:37.797Z,15.97
2018-11-29T22:37:06.316Z,17.37
2018-11-29T22:39:34.538Z,14.70
2018-11-29T22:42:02.881Z,14.70
2018-11-29T22:44:31.093Z,16.00
2018-11-29T22:46:59.280Z,14.50
2018-11-29T22:49:27.473Z,15.87
2018-11-29T22:51:55.650Z,15.90
2018-11-29T22:54:23.846Z,15.80
2018-11-29T22:56:52.017Z,15.03
2018-11-29T22:59:20.649Z,15.63
2018-11-29T23:01:48.843Z,14.23
2018-11-29T23:04:17.065Z,14.93
2018-11-29T23:06:45.252Z,14.27
2018-11-29T23:09:13.460Z,15.63
2018-11-29T23:11:41.663Z,15.27
2018-11-29T23:14:09.910Z,15.37
2018-11-29T23:16:38.130Z,15.60
2018-11-29T23:19:06.308Z,15.63
2018-11-29T23:21:34.527Z,13.97
2018-11-29T23:24:02.729Z,14.87
2018-11-29T23:26:30.912Z,15.67
2018-11-29T23:28:59.090Z,14.63
2018-11-29T23:31:27.309Z,14.77
2018-11-29T23:33:55.666Z,14.60
2018-11-29T23:36:23.848Z,15.27
2018-11-29T23:38:52.061Z,15.60
2018-11-29T23:41:20.217Z,16.07
2018-11-29T23:43:48.426Z,14.23
2018-11-29T23:46:16.601Z,14.97
2018-11-29T23:48:44.822Z,15.17
2018-11-29T23:51:13.017Z,16.50
2018-11-29T23:53:41.205Z,14.93
2018-11-29T23:56:09.403Z,15.03
2018-11-29T23:58:37.585Z,15.30
